Nearby METAR

 

KVTN - Valentine, Nebraska, USA
Distance from station: S 1.3mi, 2.1km
Updated: Wed, 26-Jun-2019 4:52am CDT
Clear
Clear
 Wind from ENE
Wind: ENE 3 mph , 6 km/h
Temperature: 63°F , 17°C
Dew Point: 55°F , 13°C
Humidity: 77%
Barometer: 29.97 inHg , 1014.9 hPa
Clouds: Clear
Visibility: 10 miles , 16 km
2019/06/26 09:52 KVTN 260952Z AUTO 07003KT 10SM CLR 17/13 A2997 RMK AO2 SLP130 T01670133
KANW - Ainsworth, Nebraska, USA
Distance from station: SE 36mi, 57km
Updated: Wed, 26-Jun-2019 5:15am CDT
Clear
Clear
 Wind from NE
Wind: NE 3 mph , 6 km/h
Temperature: 61°F , 16°C
Dew Point: 61°F , 16°C
Humidity: 100%
Barometer: 29.97 inHg , 1014.9 hPa
Clouds: Clear
Visibility: 10 miles , 16 km
2019/06/26 10:15 KANW 261015Z AUTO 05003KT 10SM CLR 16/16 A2997 RMK AO2 T01560156
 
KICR - Winner, South Dakota, USA
Distance from station: NE 50mi, 80km
Updated: Wed, 26-Jun-2019 4:53am CDT
Clear
Clear
 Wind from SW
Wind: SW 5 mph , 7 km/h
Temperature: 64°F , 18°C
Dew Point: 55°F , 13°C
Humidity: 73%
Barometer: 29.98 inHg , 1015.2 hPa
Clouds: Clear
Visibility: 10 miles , 16 km
2019/06/26 09:53 KICR 260953Z AUTO 23004KT 10SM CLR 18/13 A2998 RMK AO2 SLP136 T01830133
KTIF - Thedford, Nebraska, USA
Distance from station: S 63mi, 101km
Updated: Wed, 26-Jun-2019 5:15am CDT
Clear
Clear
 Wind from SSE
Wind: SSE 7 mph , 11 km/h
Temperature: 64°F , 18°C
Dew Point: 61°F , 16°C
Humidity: 88%
Barometer: 29.95 inHg , 1014.2 hPa
Clouds: Clear
Visibility: 10 miles , 16 km
2019/06/26 10:15 KTIF 261015Z AUTO 15006KT 10SM CLR 18/16 A2995 RMK AO2 T01770162
 
K9V9 - Chamberlain, South Dakota, USA
Distance from station: NE 87mi, 141km
Updated: Wed, 26-Jun-2019 5:15am CDT
Clear
Clear
 Wind from WSW
Wind: WSW 5 mph , 7 km/h
Temperature: 66°F , 19°C
Dew Point: 63°F , 17°C
Humidity: 88%
Barometer: 29.96 inHg , 1014.6 hPa
Clouds: Clear
Visibility: 10 miles , 16 km
2019/06/26 10:15 K9V9 261015Z AUTO 25004KT 10SM CLR 19/17 A2996 RMK AO2 T01900170
KIEN - Pine Ridge, South Dakota, USA
Distance from station: W 99mi, 160km
Updated: Wed, 26-Jun-2019 4:52am CDT
Clear
Clear
 Wind from E
Wind: E 7 mph , 11 km/h
Temperature: 55°F , 13°C
Dew Point: 52°F , 11°C
Humidity: 88%
Barometer: 29.97 inHg , 1014.9 hPa
Clouds: Clear
Visibility: 10 miles , 16 km
2019/06/26 09:52 KIEN 260952Z AUTO 10006KT 10SM CLR 13/11 A2997 RMK AO2 SLP122 T01330106
 
KPIR - Pierre, South Dakota, USA
Distance from station: N 105mi, 169km
Updated: Wed, 26-Jun-2019 4:53am CDT
Few Clouds
Few Clouds
 Wind from ENE
Wind: ENE 9 mph , 15 km/h
Temperature: 59°F , 15°C
Dew Point: 55°F , 13°C
Humidity: 88%
Barometer: 29.92 inHg , 1013.2 hPa
Clouds: Few Clouds
Visibility: 10 miles , 16 km
Cloud details: Few Clouds 12000 ft
2019/06/26 09:53 KPIR 260953Z AUTO 07008KT 10SM FEW120 15/13 A2992 RMK AO2 SLP122 T01500133
KLBF - North Platte, Nebraska, USA
Distance from station: S 120mi, 193km
Updated: Wed, 26-Jun-2019 4:53am CDT
Clear
Clear
 Wind from SE
Wind: SE 9 mph , 15 km/h
Temperature: 63°F , 17°C
Dew Point: 59°F , 15°C
Humidity: 88%
Barometer: 29.94 inHg , 1013.9 hPa
Clouds: Clear
Visibility: 10 miles , 16 km
2019/06/26 09:53 KLBF 260953Z AUTO 14008KT 10SM CLR 17/15 A2994 RMK AO2 SLP112 T01720150 $
 
KBBW - Broken Bow Muni, Nebraska, USA
Distance from station: SSE 110mi, 177km
Updated: Wed, 26-Jun-2019 4:53am CDT
Clear
Clear
 Wind from ESE
Wind: ESE 9 mph , 15 km/h
Temperature: 64°F , 18°C
Dew Point: 61°F , 16°C
Humidity: 88%
Barometer: 29.97 inHg , 1014.9 hPa
Clouds: Clear
Visibility: 10 miles , 16 km
2019/06/26 09:53 KBBW 260953Z AUTO 12008KT 10SM CLR 18/16 A2997 RMK AO2 SLP125 T01830161
KRAP - Rapid City, South Dakota, USA
Distance from station: NW 149mi, 240km
Updated: Wed, 26-Jun-2019 4:52am CDT
Clear
Clear
 Wind from WSW
Wind: WSW 6 mph , 9 km/h
Temperature: 54°F , 12°C
Dew Point: 52°F , 11°C
Humidity: 94%
Barometer: 29.97 inHg , 1014.9 hPa
Clouds: Clear
Visibility: 10 miles , 16 km
2019/06/26 09:52 KRAP 260952Z AUTO 24005KT 10SM CLR 12/11 A2997 RMK AO2 SLP131 T01220111